sensor_id;sensor_type;location;lat;lon;timestamp;pressure;altitude;pressure_sealevel;temperature;humidity
12172;BME280;6149;52.418;13.668;2022-12-26T00:00:06;100536.25;;;7.99;100.00
12172;BME280;6149;52.418;13.668;2022-12-26T00:02:37;100528.34;;;7.99;100.00
12172;BME280;6149;52.418;13.668;2022-12-26T00:05:04;100525.66;;;8.01;100.00
12172;BME280;6149;52.418;13.668;2022-12-26T00:07:32;100518.75;;;7.98;100.00
12172;BME280;6149;52.418;13.668;2022-12-26T00:09:59;100522.03;;;8.03;100.00
12172;BME280;6149;52.418;13.668;2022-12-26T00:12:26;100519.47;;;8.02;100.00
12172;BME280;6149;52.418;13.668;2022-12-26T00:14:52;100519.41;;;8.03;100.00
12172;BME280;6149;52.418;13.668;2022-12-26T00:17:20;100519.47;;;8.02;100.00
12172;BME280;6149;52.418;13.668;2022-12-26T00:19:48;100511.44;;;8.05;100.00
12172;BME280;6149;52.418;13.668;2022-12-26T00:22:15;100515.84;;;8.04;100.00
12172;BME280;6149;52.418;13.668;2022-12-26T00:24:43;100513.22;;;8.04;100.00
12172;BME280;6149;52.418;13.668;2022-12-26T00:27:10;100517.41;;;8.09;100.00
12172;BME280;6149;52.418;13.668;2022-12-26T00:29:38;100508.66;;;8.08;100.00
12172;BME280;6149;52.418;13.668;2022-12-26T00:32:06;100507.75;;;8.09;100.00
12172;BME280;6149;52.418;13.668;2022-12-26T00:34:33;100505.91;;;8.11;100.00
12172;BME280;6149;52.418;13.668;2022-12-26T00:37:01;100509.38;;;8.12;100.00
12172;BME280;6149;52.418;13.668;2022-12-26T00:39:30;100506.69;;;8.13;100.00
12172;BME280;6149;52.418;13.668;2022-12-26T00:41:56;100509.09;;;8.18;100.00
12172;BME280;6149;52.418;13.668;2022-12-26T00:44:24;100507.09;;;8.23;100.00
12172;BME280;6149;52.418;13.668;2022-12-26T00:46:52;100499.13;;;8.24;100.00
12172;BME280;6149;52.418;13.668;2022-12-26T00:49:21;100493.59;;;8.30;100.00
12172;BME280;6149;52.418;13.668;2022-12-26T00:51:49;100492.75;;;8.30;100.00
12172;BME280;6149;52.418;13.668;2022-12-26T00:54:19;100488.31;;;8.30;100.00
12172;BME280;6149;52.418;13.668;2022-12-26T00:56:48;100488.31;;;8.30;100.00
12172;BME280;6149;52.418;13.668;2022-12-26T00:59:16;100483.88;;;8.32;100.00
12172;BME280;6149;52.418;13.668;2022-12-26T01:01:45;100489.94;;;8.34;100.00
12172;BME280;6149;52.418;13.668;2022-12-26T01:04:12;100485.50;;;8.35;100.00
12172;BME280;6149;52.418;13.668;2022-12-26T01:06:40;100476.81;;;8.33;100.00
12172;BME280;6149;52.418;13.668;2022-12-26T01:09:07;100482.94;;;8.33;100.00
12172;BME280;6149;52.418;13.668;2022-12-26T01:11:38;100481.09;;;8.35;100.00
12172;BME280;6149;52.418;13.668;2022-12-26T01:14:06;100471.34;;;8.37;100.00
12172;BME280;6149;52.418;13.668;2022-12-26T01:16:34;100463.31;;;8.41;100.00
12172;BME280;6149;52.418;13.668;2022-12-26T01:19:01;100465.09;;;8.40;100.00
12172;BME280;6149;52.418;13.668;2022-12-26T01:21:29;100467.66;;;8.42;100.00
12172;BME280;6149;52.418;13.668;2022-12-26T01:23:55;100466.88;;;8.40;100.00
12172;BME280;6149;52.418;13.668;2022-12-26T01:26:23;100473.00;;;8.40;100.00
12172;BME280;6149;52.418;13.668;2022-12-26T01:28:51;100462.44;;;8.40;100.00
12172;BME280;6149;52.418;13.668;2022-12-26T01:31:19;100461.47;;;8.43;100.00
12172;BME280;6149;52.418;13.668;2022-12-26T01:33:47;100459.41;;;8.49;100.00
12172;BME280;6149;52.418;13.668;2022-12-26T01:36:15;100450.50;;;8.52;100.00
12172;BME280;6149;52.418;13.668;2022-12-26T01:38:44;100460.97;;;8.53;100.00
12172;BME280;6149;52.418;13.668;2022-12-26T01:41:12;100454.84;;;8.53;100.00
12172;BME280;6149;52.418;13.668;2022-12-26T01:43:54;100450.19;;;8.58;100.00
12172;BME280;6149;52.418;13.668;2022-12-26T01:46:26;100450.19;;;8.58;100.00
12172;BME280;6149;52.418;13.668;2022-12-26T01:48:56;100442.19;;;8.59;100.00
12172;BME280;6149;52.418;13.668;2022-12-26T01:51:28;100451.66;;;8.63;100.00
12172;BME280;6149;52.418;13.668;2022-12-26T01:53:58;100442.13;;;8.61;100.00
12172;BME280;6149;52.418;13.668;2022-12-26T01:56:31;100450.81;;;8.63;100.00
12172;BME280;6149;52.418;13.668;2022-12-26T01:59:08;100448.19;;;8.63;100.00
12172;BME280;6149;52.418;13.668;2022-12-26T02:01:39;100433.28;;;8.62;100.00
12172;BME280;6149;52.418;13.668;2022-12-26T02:04:09;100437.56;;;8.64;100.00
12172;BME280;6149;52.418;13.668;2022-12-26T02:06:57;100432.22;;;8.66;100.00
12172;BME280;6149;52.418;13.668;2022-12-26T02:09:25;100440.19;;;8.64;100.00
12172;BME280;6149;52.418;13.668;2022-12-26T02:11:57;100438.50;;;8.63;100.00
12172;BME280;6149;52.418;13.668;2022-12-26T02:14:29;100444.19;;;8.73;100.00
12172;BME280;6149;52.418;13.668;2022-12-26T02:16:56;100433.78;;;8.70;100.00
12172;BME280;6149;52.418;13.668;2022-12-26T02:19:35;100433.63;;;8.73;100.00
12172;BME280;6149;52.418;13.668;2022-12-26T02:22:35;100433.50;;;8.76;100.00
12172;BME280;6149;52.418;13.668;2022-12-26T02:25:26;100435.19;;;8.77;100.00
12172;BME280;6149;52.418;13.668;2022-12-26T02:31:29;100430.84;;;8.76;100.00
12172;BME280;6149;52.418;13.668;2022-12-26T02:34:07;100415.38;;;8.87;100.00
12172;BME280;6149;52.418;13.668;2022-12-26T02:36:48;100430.72;;;8.79;100.00
12172;BME280;6149;52.418;13.668;2022-12-26T02:39:40;100414.75;;;8.82;100.00
12172;BME280;6149;52.418;13.668;2022-12-26T02:42:23;100427.84;;;8.84;100.00
12172;BME280;6149;52.418;13.668;2022-12-26T02:45:02;100420.03;;;8.82;100.00
12172;BME280;6149;52.418;13.668;2022-12-26T02:48:03;100412.75;;;8.87;100.00
12172;BME280;6149;52.418;13.668;2022-12-26T02:50:42;100412.41;;;8.93;100.00
12172;BME280;6149;52.418;13.668;2022-12-26T02:53:40;100410.72;;;8.92;100.00
12172;BME280;6149;52.418;13.668;2022-12-26T02:56:30;100413.28;;;8.94;100.00
12172;BME280;6149;52.418;13.668;2022-12-26T02:59:21;100412.97;;;9.00;100.00
12172;BME280;6149;52.418;13.668;2022-12-26T03:02:18;100424.22;;;9.03;100.00
12172;BME280;6149;52.418;13.668;2022-12-26T03:05:15;100430.28;;;9.05;100.00
12172;BME280;6149;52.418;13.668;2022-12-26T03:08:04;100431.97;;;9.07;100.00
12172;BME280;6149;52.418;13.668;2022-12-26T03:10:51;100424.00;;;9.08;100.00
12172;BME280;6149;52.418;13.668;2022-12-26T03:13:39;100426.72;;;9.07;100.00
12172;BME280;6149;52.418;13.668;2022-12-26T03:16:09;100427.19;;;9.15;100.00
12172;BME280;6149;52.418;13.668;2022-12-26T03:18:57;100438.28;;;9.21;100.00
12172;BME280;6149;52.418;13.668;2022-12-26T03:21:30;100435.09;;;9.15;100.00
12172;BME280;6149;52.418;13.668;2022-12-26T03:24:00;100432.38;;;9.16;100.00
12172;BME280;6149;52.418;13.668;2022-12-26T03:26:29;100428.38;;;9.26;100.00
12172;BME280;6149;52.418;13.668;2022-12-26T03:29:10;100429.38;;;9.24;100.00
12172;BME280;6149;52.418;13.668;2022-12-26T03:31:55;100426.09;;;9.19;100.00
12172;BME280;6149;52.418;13.668;2022-12-26T03:34:24;100430.44;;;9.20;100.00
12172;BME280;6149;52.418;13.668;2022-12-26T03:40:07;100448.22;;;9.16;100.00
12172;BME280;6149;52.418;13.668;2022-12-26T03:43:09;100440.38;;;9.15;100.00
12172;BME280;6149;52.418;13.668;2022-12-26T03:46:12;100432.31;;;9.18;100.00
12172;BME280;6149;52.418;13.668;2022-12-26T03:49:07;100418.25;;;9.34;100.00
12172;BME280;6149;52.418;13.668;2022-12-26T03:51:58;100421.31;;;9.27;100.00
12172;BME280;6149;52.418;13.668;2022-12-26T03:54:53;100423.53;;;9.34;100.00
12172;BME280;6149;52.418;13.668;2022-12-26T03:57:49;100432.44;;;9.32;100.00
12172;BME280;6149;52.418;13.668;2022-12-26T04:00:37;100434.25;;;9.49;100.00
12172;BME280;6149;52.418;13.668;2022-12-26T04:03:26;100438.28;;;9.38;100.00
12172;BME280;6149;52.418;13.668;2022-12-26T04:06:16;100453.72;;;9.46;100.00
12172;BME280;6149;52.418;13.668;2022-12-26T04:09:08;100442.31;;;9.46;100.00
12172;BME280;6149;52.418;13.668;2022-12-26T04:11:58;100433.78;;;9.41;100.00
12172;BME280;6149;52.418;13.668;2022-12-26T04:14:48;100439.44;;;9.33;100.00
12172;BME280;6149;52.418;13.668;2022-12-26T04:17:46;100471.09;;;9.33;100.00
12172;BME280;6149;52.418;13.668;2022-12-26T04:20:36;100474.38;;;9.38;100.00
12172;BME280;6149;52.418;13.668;2022-12-26T04:23:10;100465.66;;;9.36;100.00
12172;BME280;6149;52.418;13.668;2022-12-26T04:26:01;100461.16;;;9.38;100.00
12172;BME280;6149;52.418;13.668;2022-12-26T04:28:51;100455.97;;;9.36;100.00
12172;BME280;6149;52.418;13.668;2022-12-26T04:31:41;100451.69;;;9.34;100.00
12172;BME280;6149;52.418;13.668;2022-12-26T04:34:46;100456.91;;;9.35;100.00
12172;BME280;6149;52.418;13.668;2022-12-26T04:37:38;100461.94;;;9.40;100.00
12172;BME280;6149;52.418;13.668;2022-12-26T04:40:28;100457.81;;;9.34;100.00
12172;BME280;6149;52.418;13.668;2022-12-26T04:43:16;100465.59;;;9.37;100.00
12172;BME280;6149;52.418;13.668;2022-12-26T04:46:05;100458.84;;;9.32;100.00
12172;BME280;6149;52.418;13.668;2022-12-26T04:48:33;100459.16;;;9.26;100.00
12172;BME280;6149;52.418;13.668;2022-12-26T04:51:25;100463.59;;;9.25;100.00
12172;BME280;6149;52.418;13.668;2022-12-26T04:53:52;100460.53;;;9.33;100.00
12172;BME280;6149;52.418;13.668;2022-12-26T04:56:21;100469.94;;;9.38;100.00
12172;BME280;6149;52.418;13.668;2022-12-26T04:58:48;100463.50;;;9.44;100.00
12172;BME280;6149;52.418;13.668;2022-12-26T05:01:16;100461.03;;;9.41;100.00
12172;BME280;6149;52.418;13.668;2022-12-26T05:04:01;100467.38;;;9.37;100.00
12172;BME280;6149;52.418;13.668;2022-12-26T05:06:45;100467.88;;;9.28;100.00
12172;BME280;6149;52.418;13.668;2022-12-26T05:09:29;100459.75;;;9.31;100.00
12172;BME280;6149;52.418;13.668;2022-12-26T05:11:59;100470.56;;;9.26;100.00
12172;BME280;6149;52.418;13.668;2022-12-26T05:14:26;100466.16;;;9.27;100.00
12172;BME280;6149;52.418;13.668;2022-12-26T05:16:56;100468.69;;;9.28;100.00
12172;BME280;6149;52.418;13.668;2022-12-26T05:19:40;100469.03;;;9.22;100.00
12172;BME280;6149;52.418;13.668;2022-12-26T05:22:26;100484.78;;;9.24;100.00
12172;BME280;6149;52.418;13.668;2022-12-26T05:25:16;100489.03;;;9.26;100.00
12172;BME280;6149;52.418;13.668;2022-12-26T05:28:02;100488.19;;;9.26;100.00
12172;BME280;6149;52.418;13.668;2022-12-26T05:30:48;100492.28;;;9.31;100.00
12172;BME280;6149;52.418;13.668;2022-12-26T05:33:16;100483.28;;;9.35;100.00
12172;BME280;6149;52.418;13.668;2022-12-26T05:36:00;100489.91;;;9.44;100.00
12172;BME280;6149;52.418;13.668;2022-12-26T05:38:27;100489.75;;;9.47;100.00
12172;BME280;6149;52.418;13.668;2022-12-26T05:40:56;100492.69;;;9.41;100.00
12172;BME280;6149;52.418;13.668;2022-12-26T05:43:23;100497.09;;;9.41;100.00
12172;BME280;6149;52.418;13.668;2022-12-26T05:45:50;100496.34;;;9.38;100.00
12172;BME280;6149;52.418;13.668;2022-12-26T05:48:18;100489.13;;;9.42;100.00
12172;BME280;6149;52.418;13.668;2022-12-26T05:50:45;100478.19;;;9.50;100.00
12172;BME280;6149;52.418;13.668;2022-12-26T05:53:11;100480.41;;;9.40;100.00
12172;BME280;6149;52.418;13.668;2022-12-26T05:55:39;100482.13;;;9.41;100.00
12172;BME280;6149;52.418;13.668;2022-12-26T05:58:05;100493.38;;;9.45;100.00
12172;BME280;6149;52.418;13.668;2022-12-26T06:00:32;100491.44;;;9.48;100.00
12172;BME280;6149;52.418;13.668;2022-12-26T06:02:59;100495.66;;;9.52;100.00
12172;BME280;6149;52.418;13.668;2022-12-26T06:05:28;100490.91;;;9.59;100.00
12172;BME280;6149;52.418;13.668;2022-12-26T06:07:54;100490.38;;;9.52;100.00
12172;BME280;6149;52.418;13.668;2022-12-26T06:10:21;100489.59;;;9.50;100.00
12172;BME280;6149;52.418;13.668;2022-12-26T06:12:50;100491.38;;;9.50;100.00
12172;BME280;6149;52.418;13.668;2022-12-26T06:15:17;100498.06;;;9.57;100.00
12172;BME280;6149;52.418;13.668;2022-12-26T06:17:45;100505.59;;;9.64;100.00
12172;BME280;6149;52.418;13.668;2022-12-26T06:20:11;100496.44;;;9.54;100.00
12172;BME280;6149;52.418;13.668;2022-12-26T06:22:40;100491.63;;;9.62;100.00
12172;BME280;6149;52.418;13.668;2022-12-26T06:25:08;100487.50;;;9.57;100.00
12172;BME280;6149;52.418;13.668;2022-12-26T06:27:35;100482.53;;;9.51;100.00
12172;BME280;6149;52.418;13.668;2022-12-26T06:30:03;100487.56;;;9.55;100.00
12172;BME280;6149;52.418;13.668;2022-12-26T06:32:32;100489.84;;;9.63;100.00
12172;BME280;6149;52.418;13.668;2022-12-26T06:34:59;100483.84;;;9.59;100.00
12172;BME280;6149;52.418;13.668;2022-12-26T06:37:26;100491.00;;;9.57;100.00
12172;BME280;6149;52.418;13.668;2022-12-26T06:39:59;100490.75;;;9.62;100.00
12172;BME280;6149;52.418;13.668;2022-12-26T06:42:25;100518.25;;;9.58;100.00
12172;BME280;6149;52.418;13.668;2022-12-26T06:44:52;100520.16;;;9.71;100.00
12172;BME280;6149;52.418;13.668;2022-12-26T06:47:19;100536.56;;;9.61;100.00
12172;BME280;6149;52.418;13.668;2022-12-26T06:49:46;100528.31;;;9.67;100.00
12172;BME280;6149;52.418;13.668;2022-12-26T06:52:12;100530.97;;;9.67;100.00
12172;BME280;6149;52.418;13.668;2022-12-26T06:54:40;100534.72;;;9.63;100.00
12172;BME280;6149;52.418;13.668;2022-12-26T06:57:10;100546.72;;;9.68;100.00
12172;BME280;6149;52.418;13.668;2022-12-26T06:59:38;100543.63;;;9.78;100.00
12172;BME280;6149;52.418;13.668;2022-12-26T07:02:08;100550.47;;;9.64;100.00
12172;BME280;6149;52.418;13.668;2022-12-26T07:04:35;100558.06;;;9.70;100.00
12172;BME280;6149;52.418;13.668;2022-12-26T07:07:01;100559.78;;;9.71;100.00
12172;BME280;6149;52.418;13.668;2022-12-26T07:09:31;100575.84;;;9.67;100.00
12172;BME280;6149;52.418;13.668;2022-12-26T07:11:58;100576.25;;;9.59;100.00
12172;BME280;6149;52.418;13.668;2022-12-26T07:14:26;100582.31;;;9.61;100.00
12172;BME280;6149;52.418;13.668;2022-12-26T07:16:54;100589.22;;;9.64;100.00
12172;BME280;6149;52.418;13.668;2022-12-26T07:19:22;100579.81;;;9.58;100.00
12172;BME280;6149;52.418;13.668;2022-12-26T07:21:50;100576.88;;;9.64;100.00
12172;BME280;6149;52.418;13.668;2022-12-26T07:24:20;100568.19;;;9.62;100.00
12172;BME280;6149;52.418;13.668;2022-12-26T07:26:48;100574.38;;;9.61;100.00
12172;BME280;6149;52.418;13.668;2022-12-26T07:29:14;100572.75;;;9.59;100.00
12172;BME280;6149;52.418;13.668;2022-12-26T07:31:42;100567.53;;;9.57;100.00
12172;BME280;6149;52.418;13.668;2022-12-26T07:34:13;100565.91;;;9.55;100.00
12172;BME280;6149;52.418;13.668;2022-12-26T07:36:40;100567.16;;;9.65;100.00
12172;BME280;6149;52.418;13.668;2022-12-26T07:39:07;100571.75;;;9.61;100.00
12172;BME280;6149;52.418;13.668;2022-12-26T07:41:33;100574.97;;;9.66;100.00
12172;BME280;6149;52.418;13.668;2022-12-26T07:44:17;100568.19;;;9.62;100.00
12172;BME280;6149;52.418;13.668;2022-12-26T07:46:45;100569.69;;;9.66;100.00
12172;BME280;6149;52.418;13.668;2022-12-26T07:49:12;100568.19;;;9.62;100.00
12172;BME280;6149;52.418;13.668;2022-12-26T07:51:39;100567.25;;;9.63;100.00
12172;BME280;6149;52.418;13.668;2022-12-26T07:54:11;100576.03;;;9.64;100.00
12172;BME280;6149;52.418;13.668;2022-12-26T07:56:38;100584.00;;;9.62;100.00
12172;BME280;6149;52.418;13.668;2022-12-26T07:59:05;100576.16;;;9.61;100.00
12172;BME280;6149;52.418;13.668;2022-12-26T08:01:34;100586.41;;;9.67;100.00
12172;BME280;6149;52.418;13.668;2022-12-26T08:04:01;100592.38;;;9.70;100.00
12172;BME280;6149;52.418;13.668;2022-12-26T08:06:29;100598.53;;;9.71;100.00
12172;BME280;6149;52.418;13.668;2022-12-26T08:08:56;100596.50;;;9.76;100.00
12172;BME280;6149;52.418;13.668;2022-12-26T08:11:23;100600.78;;;9.79;100.00
12172;BME280;6149;52.418;13.668;2022-12-26T08:13:50;100603.97;;;9.85;100.00
12172;BME280;6149;52.418;13.668;2022-12-26T08:16:18;100596.22;;;9.82;100.00
12172;BME280;6149;52.418;13.668;2022-12-26T08:18:47;100596.28;;;9.81;100.00
12172;BME280;6149;52.418;13.668;2022-12-26T08:21:15;100593.19;;;9.90;100.00
12172;BME280;6149;52.418;13.668;2022-12-26T08:23:42;100600.47;;;9.85;100.00
12172;BME280;6149;52.418;13.668;2022-12-26T08:26:12;100591.94;;;9.97;100.00
12172;BME280;6149;52.418;13.668;2022-12-26T08:28:44;100597.31;;;9.95;100.00
12172;BME280;6149;52.418;13.668;2022-12-26T08:31:12;100599.09;;;9.95;100.00
12172;BME280;6149;52.418;13.668;2022-12-26T08:33:41;100590.09;;;9.99;100.00
12172;BME280;6149;52.418;13.668;2022-12-26T08:36:10;100591.19;;;9.95;100.00
12172;BME280;6149;52.418;13.668;2022-12-26T08:38:42;100589.53;;;9.92;100.00
12172;BME280;6149;52.418;13.668;2022-12-26T08:41:09;100585.34;;;9.88;100.00
12172;BME280;6149;52.418;13.668;2022-12-26T08:43:37;100596.22;;;9.99;100.00
12172;BME280;6149;52.418;13.668;2022-12-26T08:46:06;100586.03;;;9.92;100.00
12172;BME280;6149;52.418;13.668;2022-12-26T08:48:37;100584.34;;;9.91;100.00
12172;BME280;6149;52.418;13.668;2022-12-26T08:51:06;100583.03;;;9.99;100.00
12172;BME280;6149;52.418;13.668;2022-12-26T08:53:36;100584.03;;;9.97;100.00
12172;BME280;6149;52.418;13.668;2022-12-26T08:56:05;100594.59;;;9.97;100.00
12172;BME280;6149;52.418;13.668;2022-12-26T08:58:34;100585.94;;;10.11;100.00
12172;BME280;6149;52.418;13.668;2022-12-26T09:01:06;100584.66;;;10.02;100.00
12172;BME280;6149;52.418;13.668;2022-12-26T09:03:33;100585.47;;;10.02;100.00
12172;BME280;6149;52.418;13.668;2022-12-26T09:06:01;100597.69;;;10.05;100.00
12172;BME280;6149;52.418;13.668;2022-12-26T09:08:28;100591.06;;;10.14;100.00
12172;BME280;6149;52.418;13.668;2022-12-26T09:10:58;100597.38;;;10.11;100.00
12172;BME280;6149;52.418;13.668;2022-12-26T09:13:29;100602.50;;;10.14;100.00
12172;BME280;6149;52.418;13.668;2022-12-26T09:16:04;100622.22;;;10.07;100.00
12172;BME280;6149;52.418;13.668;2022-12-26T09:18:32;100615.69;;;10.14;100.00
12172;BME280;6149;52.418;13.668;2022-12-26T09:20:59;100624.09;;;10.05;100.00
12172;BME280;6149;52.418;13.668;2022-12-26T09:23:27;100618.66;;;10.08;100.00
12172;BME280;6149;52.418;13.668;2022-12-26T09:26:03;100633.66;;;10.07;100.00
12172;BME280;6149;52.418;13.668;2022-12-26T09:28:32;100617.72;;;10.09;100.00
12172;BME280;6149;52.418;13.668;2022-12-26T09:31:00;100625.19;;;10.18;100.00
12172;BME280;6149;52.418;13.668;2022-12-26T09:33:28;100620.91;;;10.16;100.00
12172;BME280;6149;52.418;13.668;2022-12-26T09:35:57;100621.22;;;10.10;100.00
12172;BME280;6149;52.418;13.668;2022-12-26T09:38:25;100619.19;;;10.15;100.00
12172;BME280;6149;52.418;13.668;2022-12-26T09:41:04;100631.28;;;10.20;100.00
12172;BME280;6149;52.418;13.668;2022-12-26T09:43:47;100625.84;;;10.23;100.00
12172;BME280;6149;52.418;13.668;2022-12-26T09:46:26;100620.84;;;10.17;100.00
12172;BME280;6149;52.418;13.668;2022-12-26T09:49:01;100623.47;;;10.17;100.00
12172;BME280;6149;52.418;13.668;2022-12-26T09:51:32;100626.53;;;10.27;100.00
12172;BME280;6149;52.418;13.668;2022-12-26T09:54:03;100633.31;;;10.32;100.00
12172;BME280;6149;52.418;13.668;2022-12-26T09:56:32;100619.00;;;10.36;100.00
12172;BME280;6149;52.418;13.668;2022-12-26T09:59:07;100612.88;;;10.36;100.00
12172;BME280;6149;52.418;13.668;2022-12-26T10:01:40;100616.19;;;10.40;100.00
12172;BME280;6149;52.418;13.668;2022-12-26T10:04:18;100618.56;;;10.44;100.00
12172;BME280;6149;52.418;13.668;2022-12-26T10:06:55;100611.75;;;10.40;100.00
12172;BME280;6149;52.418;13.668;2022-12-26T10:09:43;100620.63;;;10.39;100.00
12172;BME280;6149;52.418;13.668;2022-12-26T10:12:35;100645.47;;;10.52;100.00
12172;BME280;6149;52.418;13.668;2022-12-26T10:15:22;100643.53;;;10.56;100.00
12172;BME280;6149;52.418;13.668;2022-12-26T10:18:02;100649.13;;;10.50;100.00
12172;BME280;6149;52.418;13.668;2022-12-26T10:20:57;100657.91;;;10.50;100.00
12172;BME280;6149;52.418;13.668;2022-12-26T10:23:33;100660.16;;;10.58;100.00
12172;BME280;6149;52.418;13.668;2022-12-26T10:26:07;100651.31;;;10.59;100.00
12172;BME280;6149;52.418;13.668;2022-12-26T10:28:42;100648.03;;;10.54;100.00
12172;BME280;6149;52.418;13.668;2022-12-26T10:31:16;100650.59;;;10.55;100.00
12172;BME280;6149;52.418;13.668;2022-12-26T10:33:51;100659.31;;;10.57;100.00
12172;BME280;6149;52.418;13.668;2022-12-26T10:36:27;100661.56;;;10.65;100.00
12172;BME280;6149;52.418;13.668;2022-12-26T10:38:57;100662.81;;;10.58;100.00
12172;BME280;6149;52.418;13.668;2022-12-26T10:41:30;100663.66;;;10.58;100.00
12172;BME280;6149;52.418;13.668;2022-12-26T10:44:00;100654.41;;;10.50;100.00
12172;BME280;6149;52.418;13.668;2022-12-26T10:46:55;100662.19;;;10.53;100.00
12172;BME280;6149;52.418;13.668;2022-12-26T10:49:29;100666.78;;;10.49;100.00
12172;BME280;6149;52.418;13.668;2022-12-26T10:51:58;100652.31;;;10.56;100.00
12172;BME280;6149;52.418;13.668;2022-12-26T10:54:27;100655.03;;;10.55;100.00
12172;BME280;6149;52.418;13.668;2022-12-26T10:56:56;100644.31;;;10.58;100.00
12172;BME280;6149;52.418;13.668;2022-12-26T10:59:34;100633.25;;;10.50;100.00
12172;BME280;6149;52.418;13.668;2022-12-26T11:02:24;100629.78;;;10.49;100.00
12172;BME280;6149;52.418;13.668;2022-12-26T11:04:58;100632.66;;;10.45;100.00
12172;BME280;6149;52.418;13.668;2022-12-26T11:07:30;100637.84;;;10.46;100.00
12172;BME280;6149;52.418;13.668;2022-12-26T11:09:58;100628.91;;;10.49;100.00
12172;BME280;6149;52.418;13.668;2022-12-26T11:12:32;100631.22;;;10.39;100.00
12172;BME280;6149;52.418;13.668;2022-12-26T11:15:05;100632.88;;;10.40;100.00
12172;BME280;6149;52.418;13.668;2022-12-26T11:17:41;100639.22;;;10.37;100.00
12172;BME280;6149;52.418;13.668;2022-12-26T11:20:21;100641.66;;;10.41;100.00
12172;BME280;6149;52.418;13.668;2022-12-26T11:22:51;100644.66;;;10.34;100.00
12172;BME280;6149;52.418;13.668;2022-12-26T11:25:21;100645.75;;;10.30;100.00
12172;BME280;6149;52.418;13.668;2022-12-26T11:27:51;100634.16;;;10.33;100.00
12172;BME280;6149;52.418;13.668;2022-12-26T11:30:26;100643.09;;;10.30;100.00
12172;BME280;6149;52.418;13.668;2022-12-26T11:33:11;100632.84;;;10.24;100.00
12172;BME280;6149;52.418;13.668;2022-12-26T11:35:48;100634.63;;;10.24;100.00
12172;BME280;6149;52.418;13.668;2022-12-26T11:38:19;100635.75;;;10.18;100.00
12172;BME280;6149;52.418;13.668;2022-12-26T11:41:09;100624.41;;;10.16;100.00
12172;BME280;6149;52.418;13.668;2022-12-26T11:43:56;100612.06;;;10.17;100.00
12172;BME280;6149;52.418;13.668;2022-12-26T11:46:34;100614.06;;;10.12;100.00
12172;BME280;6149;52.418;13.668;2022-12-26T11:49:16;100623.09;;;10.07;100.00
12172;BME280;6149;52.418;13.668;2022-12-26T11:51:47;100625.16;;;10.20;100.00
12172;BME280;6149;52.418;13.668;2022-12-26T11:54:28;100636.06;;;10.12;100.00
12172;BME280;6149;52.418;13.668;2022-12-26T11:57:16;100650.75;;;10.18;100.00
12172;BME280;6149;52.418;13.668;2022-12-26T11:59:45;100649.34;;;10.11;100.00
12172;BME280;6149;52.418;13.668;2022-12-26T12:02:21;100655.88;;;10.03;100.00
12172;BME280;6149;52.418;13.668;2022-12-26T12:04:56;100648.66;;;10.07;100.00
12172;BME280;6149;52.418;13.668;2022-12-26T12:07:39;100656.19;;;10.15;100.00
12172;BME280;6149;52.418;13.668;2022-12-26T12:10:33;100659.84;;;10.12;100.00
12172;BME280;6149;52.418;13.668;2022-12-26T12:13:20;100660.53;;;10.16;100.00
12172;BME280;6149;52.418;13.668;2022-12-26T12:15:56;100657.19;;;10.12;100.00
12172;BME280;6149;52.418;13.668;2022-12-26T12:18:38;100647.06;;;10.22;100.00
12172;BME280;6149;52.418;13.668;2022-12-26T12:21:20;100647.41;;;10.14;100.00
12172;BME280;6149;52.418;13.668;2022-12-26T12:24:07;100659.50;;;10.20;100.00
12172;BME280;6149;52.418;13.668;2022-12-26T12:27:10;100653.41;;;10.18;100.00
12172;BME280;6149;52.418;13.668;2022-12-26T12:30:02;100644.25;;;10.25;100.00
12172;BME280;6149;52.418;13.668;2022-12-26T12:33:24;100626.94;;;10.19;100.00
12172;BME280;6149;52.418;13.668;2022-12-26T12:36:08;100639.75;;;10.27;100.00
12172;BME280;6149;52.418;13.668;2022-12-26T12:38:52;100634.84;;;10.19;100.00
12172;BME280;6149;52.418;13.668;2022-12-26T12:42:04;100629.63;;;10.18;100.00
12172;BME280;6149;52.418;13.668;2022-12-26T12:44:50;100631.72;;;10.11;100.00
12172;BME280;6149;52.418;13.668;2022-12-26T12:47:44;100623.00;;;10.09;100.00
12172;BME280;6149;52.418;13.668;2022-12-26T12:50:23;100617.56;;;10.12;100.00
12172;BME280;6149;52.418;13.668;2022-12-26T12:53:00;100620.91;;;10.16;100.00
12172;BME280;6149;52.418;13.668;2022-12-26T12:55:42;100624.66;;;10.12;100.00
12172;BME280;6149;52.418;13.668;2022-12-26T12:58:25;100636.28;;;10.07;100.00
12172;BME280;6149;52.418;13.668;2022-12-26T13:00:59;100632.28;;;10.00;100.00
12172;BME280;6149;52.418;13.668;2022-12-26T13:03:32;100637.00;;;10.11;100.00
12172;BME280;6149;52.418;13.668;2022-12-26T13:06:05;100636.38;;;10.06;100.00
12172;BME280;6149;52.418;13.668;2022-12-26T13:08:38;100635.22;;;10.12;100.00
12172;BME280;6149;52.418;13.668;2022-12-26T13:11:12;100630.31;;;10.04;100.00
12172;BME280;6149;52.418;13.668;2022-12-26T13:13:47;100624.44;;;9.99;100.00
12172;BME280;6149;52.418;13.668;2022-12-26T13:16:18;100622.88;;;9.95;100.00
12172;BME280;6149;52.418;13.668;2022-12-26T13:18:51;100620.94;;;9.98;100.00
12172;BME280;6149;52.418;13.668;2022-12-26T13:21:24;100633.00;;;10.21;100.00
12172;BME280;6149;52.418;13.668;2022-12-26T13:23:55;100639.09;;;10.04;100.00
12172;BME280;6149;52.418;13.668;2022-12-26T13:26:47;100631.56;;;10.14;100.00
12172;BME280;6149;52.418;13.668;2022-12-26T13:29:27;100635.59;;;10.04;100.00
12172;BME280;6149;52.418;13.668;2022-12-26T13:32:01;100633.50;;;9.93;100.00
12172;BME280;6149;52.418;13.668;2022-12-26T13:34:30;100624.72;;;9.93;100.00